createdAt,value
2022-09-21T00:01:15.842Z,10.80
2022-09-21T00:03:44.861Z,10.80
2022-09-21T00:06:14.780Z,10.80
2022-09-21T00:08:43.534Z,10.80
2022-09-21T00:11:15.084Z,10.70
2022-09-21T00:13:46.805Z,10.70
2022-09-21T00:16:17.832Z,10.50
2022-09-21T00:18:46.164Z,10.50
2022-09-21T00:21:16.608Z,10.60
2022-09-21T00:23:45.708Z,10.50
2022-09-21T00:26:16.558Z,10.50
2022-09-21T00:28:46.258Z,10.50
2022-09-21T00:31:18.264Z,10.50
2022-09-21T00:33:46.604Z,10.40
2022-09-21T00:36:17.256Z,10.40
2022-09-21T00:38:46.103Z,10.40
2022-09-21T00:41:14.772Z,10.40
2022-09-21T00:43:47.190Z,10.40
2022-09-21T00:46:24.174Z,10.30
2022-09-21T00:48:52.628Z,10.20
2022-09-21T00:51:21.328Z,10.30
2022-09-21T00:53:53.008Z,10.20
2022-09-21T00:56:21.483Z,10.10
2022-09-21T00:58:52.236Z,10.10
2022-09-21T01:01:22.378Z,10.10
2022-09-21T01:03:52.723Z,10.10
2022-09-21T01:06:22.484Z,10.10
2022-09-21T01:08:54.276Z,10.10
2022-09-21T01:11:31.581Z,10.00
2022-09-21T01:14:33.062Z,10.10
2022-09-21T01:17:13.505Z,10.00
2022-09-21T01:20:19.908Z,10.00
2022-09-21T01:23:02.813Z,9.90
2022-09-21T01:25:40.565Z,9.90
2022-09-21T01:28:20.365Z,9.90
2022-09-21T01:30:53.546Z,9.90
2022-09-21T01:33:28.846Z,9.80
2022-09-21T01:36:02.251Z,9.80
2022-09-21T01:38:36.714Z,9.80
2022-09-21T01:41:08.095Z,9.80
2022-09-21T01:43:40.165Z,9.80
2022-09-21T01:46:15.263Z,9.70
2022-09-21T01:48:47.672Z,9.60
2022-09-21T01:51:19.049Z,9.60
2022-09-21T01:53:52.199Z,9.60
2022-09-21T01:56:26.775Z,9.60
2022-09-21T01:59:05.133Z,9.50
2022-09-21T02:01:39.905Z,9.50
2022-09-21T02:04:12.449Z,9.50
2022-09-21T02:06:44.515Z,9.40
2022-09-21T02:09:13.375Z,9.40
2022-09-21T02:11:43.075Z,9.40
2022-09-21T02:14:12.892Z,9.40
2022-09-21T02:16:49.902Z,9.50
2022-09-21T02:19:23.760Z,9.40
2022-09-21T02:22:03.301Z,9.30
2022-09-21T02:24:41.226Z,9.30
2022-09-21T02:27:19.733Z,9.30
2022-09-21T02:29:53.711Z,9.20
2022-09-21T02:32:38.147Z,9.20
2022-09-21T02:35:12.684Z,9.20
2022-09-21T02:37:47.353Z,9.10
2022-09-21T02:40:24.795Z,9.10
2022-09-21T02:42:58.124Z,9.10
2022-09-21T02:45:29.944Z,9.10
2022-09-21T02:48:02.389Z,9.20
2022-09-21T02:50:35.203Z,9.10
2022-09-21T02:53:05.657Z,9.00
2022-09-21T02:55:34.901Z,9.00
2022-09-21T02:58:06.911Z,8.90
2022-09-21T03:00:36.147Z,8.90
2022-09-21T03:03:17.276Z,8.90
2022-09-21T03:05:47.790Z,8.90
2022-09-21T03:08:15.818Z,8.90
2022-09-21T03:10:43.842Z,8.80
2022-09-21T03:13:12.348Z,8.90
2022-09-21T03:15:41.789Z,8.90
2022-09-21T03:18:11.384Z,8.90
2022-09-21T03:20:40.760Z,8.90
2022-09-21T03:23:08.987Z,8.90
2022-09-21T03:25:36.976Z,8.90
2022-09-21T03:28:05.179Z,8.80
2022-09-21T03:30:33.206Z,8.70
2022-09-21T03:33:01.192Z,8.70
2022-09-21T03:35:30.536Z,8.70
2022-09-21T03:37:59.543Z,8.80
2022-09-21T03:40:28.027Z,8.80
2022-09-21T03:42:56.457Z,8.80
2022-09-21T03:45:24.811Z,8.70
2022-09-21T03:47:56.719Z,8.80
2022-09-21T03:50:25.215Z,8.70
2022-09-21T03:52:54.742Z,8.70
2022-09-21T03:55:23.144Z,8.70
2022-09-21T03:57:51.239Z,8.70
2022-09-21T04:00:19.799Z,8.70
2022-09-21T04:02:47.853Z,8.70
2022-09-21T04:05:17.248Z,8.70
2022-09-21T04:07:46.762Z,8.70
2022-09-21T04:10:18.011Z,8.70
2022-09-21T04:12:47.319Z,8.70
2022-09-21T04:15:19.055Z,8.70
2022-09-21T04:17:47.847Z,8.60
2022-09-21T04:20:15.820Z,8.50
2022-09-21T04:22:44.810Z,8.50
2022-09-21T04:25:13.181Z,8.60
2022-09-21T04:27:43.102Z,8.60
2022-09-21T04:30:13.281Z,8.50
2022-09-21T04:32:41.791Z,8.40
2022-09-21T04:35:10.720Z,8.30
2022-09-21T04:37:38.709Z,8.40
2022-09-21T04:40:08.110Z,8.40
2022-09-21T04:42:36.593Z,8.40
2022-09-21T04:45:06.845Z,8.50
2022-09-21T04:47:34.834Z,8.40
2022-09-21T04:50:02.818Z,8.40
2022-09-21T04:52:30.792Z,8.50
2022-09-21T04:54:59.084Z,8.50
2022-09-21T04:57:27.051Z,8.50
2022-09-21T04:59:55.318Z,9.00
2022-09-21T05:02:24.756Z,8.50
2022-09-21T05:04:52.744Z,8.50
2022-09-21T05:07:20.718Z,8.50
2022-09-21T05:10:02.922Z,8.50
2022-09-21T05:12:31.199Z,8.60
2022-09-21T05:14:59.467Z,8.50
2022-09-21T05:17:28.888Z,8.50
2022-09-21T05:19:57.052Z,8.50
2022-09-21T05:22:25.096Z,8.50
2022-09-21T05:24:53.073Z,8.50
2022-09-21T05:27:21.083Z,8.60
2022-09-21T05:29:49.577Z,8.60
2022-09-21T05:32:24.747Z,8.60
2022-09-21T05:35:08.598Z,8.60
2022-09-21T05:37:52.575Z,8.70
2022-09-21T05:40:21.566Z,8.70
2022-09-21T05:42:50.244Z,8.70
2022-09-21T05:45:21.120Z,8.70
2022-09-21T05:48:01.508Z,8.80
2022-09-21T05:50:40.814Z,8.80
2022-09-21T05:53:29.751Z,8.80
2022-09-21T05:56:00.787Z,8.70
2022-09-21T05:58:38.106Z,8.70
2022-09-21T06:01:25.519Z,8.80
2022-09-21T06:03:54.627Z,8.80
2022-09-21T06:06:24.028Z,8.80
2022-09-21T06:08:52.110Z,8.80
2022-09-21T06:11:20.300Z,8.90
2022-09-21T06:13:48.330Z,8.90
2022-09-21T06:16:16.379Z,8.90
2022-09-21T06:18:44.401Z,8.90
2022-09-21T06:21:12.615Z,8.90
2022-09-21T06:23:41.952Z,8.70
2022-09-21T06:26:09.979Z,8.80
2022-09-21T06:28:37.956Z,8.90
2022-09-21T06:31:06.284Z,9.00
2022-09-21T06:33:35.766Z,9.10
2022-09-21T06:36:04.061Z,9.20
2022-09-21T06:38:32.114Z,9.30
2022-09-21T06:41:04.875Z,9.30
2022-09-21T06:43:33.617Z,9.40
2022-09-21T06:46:03.060Z,9.40
2022-09-21T06:48:33.417Z,9.50
2022-09-21T06:51:01.916Z,9.70
2022-09-21T06:53:30.885Z,9.80
2022-09-21T06:56:04.193Z,9.90
2022-09-21T06:58:34.237Z,10.00
2022-09-21T07:01:07.514Z,10.10
2022-09-21T07:03:36.291Z,10.40
2022-09-21T07:06:04.777Z,10.60
2022-09-21T07:11:23.670Z,10.80
2022-09-21T07:13:52.825Z,11.00
2022-09-21T07:16:21.588Z,11.20
2022-09-21T07:18:50.128Z,11.30
2022-09-21T07:21:18.197Z,11.50
2022-09-21T07:23:46.212Z,11.70
2022-09-21T07:26:15.166Z,11.90
2022-09-21T07:28:44.535Z,12.20
2022-09-21T07:31:15.495Z,12.50
2022-09-21T07:33:44.505Z,12.90
2022-09-21T07:36:13.228Z,13.40
2022-09-21T07:38:42.835Z,13.90
2022-09-21T07:41:12.799Z,14.20
2022-09-21T07:43:41.450Z,14.50
2022-09-21T07:46:13.031Z,14.80
2022-09-21T07:48:41.426Z,15.50
2022-09-21T07:51:11.252Z,15.70
2022-09-21T07:53:41.297Z,16.10
2022-09-21T07:56:11.710Z,16.40
2022-09-21T07:58:57.881Z,16.70
2022-09-21T08:01:28.540Z,17.10
2022-09-21T08:03:58.073Z,17.70
2022-09-21T08:06:27.584Z,18.00
2022-09-21T08:08:58.085Z,18.50
2022-09-21T08:11:27.566Z,18.70
2022-09-21T08:13:57.566Z,19.10
2022-09-21T08:21:24.679Z,20.30
2022-09-21T08:23:52.832Z,20.70
2022-09-21T08:26:22.709Z,21.10
2022-09-21T08:28:53.405Z,21.20
2022-09-21T08:31:24.307Z,21.40
2022-09-21T08:36:24.320Z,21.70
2022-09-21T08:38:52.466Z,22.00
2022-09-21T08:43:54.571Z,23.00
2022-09-21T08:46:24.694Z,23.30
2022-09-21T08:48:57.424Z,22.70
2022-09-21T08:51:31.604Z,23.10
2022-09-21T08:54:02.756Z,23.00
2022-09-21T08:56:53.304Z,23.70
2022-09-21T08:59:19.789Z,24.00
2022-09-21T09:01:59.623Z,24.00
2022-09-21T09:04:51.216Z,24.20
2022-09-21T09:07:34.725Z,24.30
2022-09-21T09:10:20.832Z,24.50
2022-09-21T09:12:59.758Z,25.30
2022-09-21T09:15:44.224Z,25.90
2022-09-21T09:18:18.749Z,26.20
2022-09-21T09:20:49.143Z,26.50
2022-09-21T09:23:23.847Z,26.90
2022-09-21T09:25:55.181Z,26.90
2022-09-21T09:28:30.189Z,27.30
2022-09-21T09:31:01.862Z,27.70
2022-09-21T09:33:38.141Z,28.00
2022-09-21T09:36:07.831Z,28.10
2022-09-21T09:38:40.767Z,28.60
2022-09-21T09:41:26.557Z,28.20
2022-09-21T09:44:07.970Z,28.40
2022-09-21T09:46:45.259Z,28.70
2022-09-21T09:49:26.361Z,28.70
2022-09-21T09:51:55.747Z,28.90
2022-09-21T09:54:28.139Z,29.50
2022-09-21T09:56:56.180Z,29.50
2022-09-21T09:59:30.594Z,29.50
2022-09-21T10:02:04.006Z,29.80
2022-09-21T10:04:34.735Z,29.00
2022-09-21T10:07:02.906Z,29.20
2022-09-21T10:09:34.142Z,28.80
2022-09-21T10:12:10.147Z,28.90
2022-09-21T10:14:38.614Z,29.50
2022-09-21T10:17:09.144Z,29.80
2022-09-21T10:19:38.220Z,30.50
2022-09-21T10:22:06.865Z,30.70
2022-09-21T10:24:40.701Z,29.90
2022-09-21T10:27:14.282Z,29.60
2022-09-21T10:29:44.790Z,29.60
2022-09-21T10:32:25.331Z,29.20
2022-09-21T10:35:18.124Z,29.70
2022-09-21T10:37:48.500Z,29.00
2022-09-21T10:40:30.781Z,28.00
2022-09-21T10:43:01.328Z,28.20
2022-09-21T10:45:31.295Z,29.10
2022-09-21T10:48:08.071Z,29.50
2022-09-21T10:50:38.025Z,29.50
2022-09-21T10:53:15.366Z,30.20
2022-09-21T10:55:58.440Z,30.10
2022-09-21T10:58:37.206Z,29.50
2022-09-21T11:01:13.988Z,29.00
2022-09-21T11:03:52.385Z,28.40
2022-09-21T11:06:26.141Z,28.20
2022-09-21T11:08:59.603Z,27.80
2022-09-21T11:11:40.737Z,27.60
2022-09-21T11:14:17.998Z,27.40
2022-09-21T11:16:51.918Z,27.10
2022-09-21T11:19:29.387Z,26.80
2022-09-21T11:22:02.840Z,26.50
2022-09-21T11:24:39.979Z,26.10
2022-09-21T11:27:13.723Z,25.90
2022-09-21T11:29:51.429Z,25.60
2022-09-21T11:32:37.182Z,25.40
2022-09-21T11:35:27.040Z,25.20
2022-09-21T11:38:06.690Z,24.80
2022-09-21T11:40:55.847Z,24.50
2022-09-21T11:43:41.724Z,24.30
2022-09-21T11:46:16.255Z,24.20
2022-09-21T11:49:00.995Z,24.10
2022-09-21T11:51:40.999Z,23.80
2022-09-21T11:54:34.940Z,23.60
2022-09-21T11:57:11.241Z,23.50
2022-09-21T11:59:59.282Z,23.20
2022-09-21T12:02:45.496Z,23.30
2022-09-21T12:05:21.405Z,23.30
2022-09-21T12:08:03.080Z,23.10
2022-09-21T12:10:41.308Z,23.00
2022-09-21T12:13:20.535Z,22.80
2022-09-21T12:15:56.429Z,22.70
2022-09-21T12:18:32.582Z,22.60
2022-09-21T12:21:09.390Z,22.50
2022-09-21T12:23:43.009Z,22.50
2022-09-21T12:26:15.463Z,22.20
2022-09-21T12:28:47.693Z,21.90
2022-09-21T12:31:21.116Z,21.90
2022-09-21T12:33:52.976Z,21.90
2022-09-21T12:36:26.599Z,21.80
2022-09-21T12:39:00.378Z,21.80
2022-09-21T12:41:35.573Z,21.60
2022-09-21T12:44:13.577Z,21.50
2022-09-21T12:46:51.650Z,21.40
2022-09-21T12:49:25.248Z,21.40
2022-09-21T12:51:56.584Z,21.30
2022-09-21T12:54:37.899Z,22.50
2022-09-21T12:57:38.322Z,23.70
2022-09-21T13:00:07.046Z,24.20
2022-09-21T13:05:24.630Z,25.40
2022-09-21T13:08:04.917Z,26.20
2022-09-21T13:10:40.939Z,26.40
2022-09-21T13:13:18.648Z,26.90
2022-09-21T13:15:49.640Z,27.30
2022-09-21T13:18:23.392Z,27.50
2022-09-21T13:20:54.393Z,28.10
2022-09-21T13:23:29.273Z,28.60
2022-09-21T13:26:04.267Z,28.60
2022-09-21T13:29:07.196Z,27.40
2022-09-21T13:31:58.592Z,28.50
2022-09-21T13:34:30.481Z,28.50
2022-09-21T13:37:28.839Z,29.00
2022-09-21T13:40:34.964Z,29.90
2022-09-21T13:43:25.261Z,30.60
2022-09-21T13:48:29.593Z,31.50
2022-09-21T13:51:02.805Z,31.70
2022-09-21T13:53:35.736Z,32.00
2022-09-21T13:56:18.009Z,31.70
2022-09-21T13:58:48.336Z,31.40
2022-09-21T14:01:45.777Z,30.90
2022-09-21T14:04:24.170Z,30.00
2022-09-21T14:06:54.870Z,29.50
2022-09-21T14:09:27.623Z,29.40
2022-09-21T14:11:58.974Z,29.30
2022-09-21T14:14:31.421Z,28.70
2022-09-21T14:17:00.693Z,28.60
2022-09-21T14:20:08.069Z,29.00
2022-09-21T14:22:46.748Z,28.50
2022-09-21T14:25:29.587Z,28.10
2022-09-21T14:28:12.067Z,27.60
2022-09-21T14:30:42.109Z,27.20
2022-09-21T14:33:26.551Z,26.80
2022-09-21T14:35:57.464Z,26.60
2022-09-21T14:38:32.759Z,26.20
2022-09-21T14:41:07.289Z,25.80
2022-09-21T14:43:37.057Z,25.50
2022-09-21T14:46:32.748Z,25.30
2022-09-21T14:49:15.551Z,25.10
2022-09-21T14:54:49.240Z,24.80
2022-09-21T14:57:37.227Z,25.40
2022-09-21T15:00:24.611Z,25.80
2022-09-21T15:03:10.293Z,26.00
2022-09-21T15:05:41.472Z,26.10
2022-09-21T15:08:42.116Z,26.40
2022-09-21T15:11:21.753Z,26.60
2022-09-21T15:14:16.724Z,26.50
2022-09-21T15:16:47.294Z,26.30
2022-09-21T15:19:23.760Z,26.40
2022-09-21T15:21:53.765Z,26.50
2022-09-21T15:24:26.484Z,26.20
2022-09-21T15:27:03.885Z,25.90
2022-09-21T15:29:33.936Z,25.80
2022-09-21T15:32:02.670Z,26.00
2022-09-21T15:34:32.115Z,25.60
2022-09-21T15:37:16.991Z,25.50
2022-09-21T15:39:45.093Z,25.10
2022-09-21T15:42:22.729Z,24.90
2022-09-21T15:44:54.501Z,24.80
2022-09-21T15:47:25.855Z,24.50
2022-09-21T15:49:56.181Z,24.20
2022-09-21T15:52:33.031Z,23.90
2022-09-21T15:55:04.148Z,23.80
2022-09-21T15:57:39.207Z,23.60
2022-09-21T16:00:19.252Z,23.40
2022-09-21T16:03:05.375Z,23.30
2022-09-21T16:05:43.110Z,23.10
2022-09-21T16:08:28.401Z,22.90
2022-09-21T16:11:14.532Z,22.60
2022-09-21T16:14:02.323Z,22.40
2022-09-21T16:16:30.455Z,22.20
2022-09-21T16:19:00.654Z,22.10
2022-09-21T16:21:32.657Z,21.80
2022-09-21T16:24:12.517Z,21.70
2022-09-21T16:26:41.615Z,21.40
2022-09-21T16:29:23.660Z,21.10
2022-09-21T16:31:51.767Z,20.80
2022-09-21T16:39:27.383Z,20.80
2022-09-21T16:42:02.635Z,20.80
2022-09-21T16:44:40.120Z,20.80
2022-09-21T16:47:14.299Z,20.70
2022-09-21T16:49:42.692Z,20.60
2022-09-21T16:52:10.971Z,20.50
2022-09-21T16:54:39.141Z,20.30
2022-09-21T16:57:08.028Z,20.10
2022-09-21T16:59:37.403Z,20.10
2022-09-21T17:02:06.043Z,19.90
2022-09-21T17:04:35.864Z,19.80
2022-09-21T17:07:06.148Z,19.70
2022-09-21T17:09:35.964Z,19.60
2022-09-21T17:12:06.891Z,19.50
2022-09-21T17:14:41.901Z,19.40
2022-09-21T17:17:17.592Z,19.20
2022-09-21T17:19:47.115Z,19.00
2022-09-21T17:22:17.257Z,19.00
2022-09-21T17:24:51.263Z,19.30
2022-09-21T17:27:21.671Z,18.40
2022-09-21T17:29:53.859Z,18.40
2022-09-21T17:32:23.620Z,18.20
2022-09-21T17:34:58.846Z,18.20
2022-09-21T17:37:27.319Z,18.20
2022-09-21T17:39:55.453Z,17.90
2022-09-21T17:42:25.945Z,17.90
2022-09-21T17:45:12.787Z,17.70
2022-09-21T17:50:19.543Z,17.50
2022-09-21T17:53:02.253Z,17.30
2022-09-21T17:55:31.442Z,17.10
2022-09-21T18:00:44.085Z,17.10
2022-09-21T18:05:48.977Z,16.80
2022-09-21T18:08:17.827Z,17.10
2022-09-21T18:11:07.508Z,16.90
2022-09-21T18:13:46.261Z,16.90
2022-09-21T18:16:33.691Z,16.70
2022-09-21T18:19:23.410Z,16.70
2022-09-21T18:21:58.174Z,16.50
2022-09-21T18:24:31.162Z,16.30
2022-09-21T18:27:00.784Z,16.10
2022-09-21T18:29:40.890Z,16.00
2022-09-21T18:32:36.277Z,15.90
2022-09-21T18:35:28.268Z,15.90
2022-09-21T18:38:08.760Z,15.90
2022-09-21T18:40:46.870Z,16.00
2022-09-21T18:43:27.552Z,15.90
2022-09-21T18:46:02.626Z,15.70
2022-09-21T18:48:50.813Z,15.60
2022-09-21T18:51:30.094Z,15.30
2022-09-21T18:54:00.199Z,15.50
2022-09-21T18:59:02.935Z,14.90
2022-09-21T19:01:33.896Z,15.40
2022-09-21T19:04:04.333Z,15.40
2022-09-21T19:06:41.234Z,15.30
2022-09-21T19:09:30.175Z,15.10
2022-09-21T19:12:06.218Z,15.10
2022-09-21T19:14:42.637Z,14.90
2022-09-21T19:17:26.724Z,14.60
2022-09-21T19:20:10.819Z,14.50
2022-09-21T19:22:49.357Z,14.50
2022-09-21T19:25:24.857Z,14.50
2022-09-21T19:27:55.709Z,14.40
2022-09-21T19:30:24.028Z,14.30
2022-09-21T19:32:54.069Z,14.30
2022-09-21T19:35:26.140Z,14.20
2022-09-21T19:37:56.315Z,14.30
2022-09-21T19:40:26.814Z,14.20
2022-09-21T19:43:20.684Z,14.20
2022-09-21T19:46:04.540Z,14.20
2022-09-21T19:48:42.532Z,14.10
2022-09-21T19:51:19.355Z,13.90
2022-09-21T19:54:10.930Z,13.90
2022-09-21T19:57:03.562Z,13.90
2022-09-21T19:59:44.018Z,13.80
2022-09-21T20:02:15.257Z,13.70
2022-09-21T20:04:50.746Z,13.70
2022-09-21T20:07:25.086Z,13.70
2022-09-21T20:10:10.568Z,13.60
2022-09-21T20:12:48.702Z,13.50
2022-09-21T20:15:28.638Z,13.30
2022-09-21T20:18:02.964Z,13.30
2022-09-21T20:20:31.577Z,13.20
2022-09-21T20:23:01.525Z,13.20
2022-09-21T20:25:35.560Z,13.10
2022-09-21T20:28:04.705Z,13.10
2022-09-21T20:30:35.827Z,13.00
2022-09-21T20:33:06.866Z,13.10
2022-09-21T20:35:35.716Z,13.00
2022-09-21T20:38:05.164Z,13.10
2022-09-21T20:40:33.460Z,13.00
2022-09-21T20:43:01.965Z,12.80
2022-09-21T20:45:32.275Z,12.80
2022-09-21T20:48:13.033Z,12.80
2022-09-21T20:50:42.345Z,12.70
2022-09-21T20:53:12.544Z,12.70
2022-09-21T20:55:41.103Z,12.60
2022-09-21T20:58:11.918Z,12.60
2022-09-21T21:00:39.938Z,12.60
2022-09-21T21:03:08.026Z,12.60
2022-09-21T21:05:36.076Z,12.60
2022-09-21T21:08:04.695Z,12.60
2022-09-21T21:10:34.375Z,12.50
2022-09-21T21:13:02.824Z,12.50
2022-09-21T21:15:31.370Z,12.50
2022-09-21T21:17:59.365Z,12.50
2022-09-21T21:20:29.039Z,12.50
2022-09-21T21:22:57.066Z,12.40
2022-09-21T21:25:25.059Z,12.40
2022-09-21T21:27:57.449Z,12.40
2022-09-21T21:30:25.523Z,12.30
2022-09-21T21:32:53.617Z,12.30
2022-09-21T21:35:21.667Z,12.20
2022-09-21T21:37:49.717Z,12.10
2022-09-21T21:40:17.947Z,12.10
2022-09-21T21:42:46.205Z,12.10
2022-09-21T21:45:15.652Z,12.00
2022-09-21T21:47:43.704Z,11.90
2022-09-21T21:50:12.277Z,11.90
2022-09-21T21:52:40.627Z,11.90
2022-09-21T21:55:10.142Z,11.90
2022-09-21T21:57:38.142Z,11.90
2022-09-21T22:00:08.726Z,11.90
2022-09-21T22:02:38.154Z,11.70
2022-09-21T22:05:06.891Z,11.70
2022-09-21T22:07:34.939Z,11.60
2022-09-21T22:10:03.071Z,11.50
2022-09-21T22:12:31.731Z,11.40
2022-09-21T22:14:59.701Z,11.40
2022-09-21T22:17:27.704Z,11.40
2022-09-21T22:19:57.047Z,11.40
2022-09-21T22:22:25.272Z,11.40
2022-09-21T22:24:53.289Z,11.30
2022-09-21T22:27:21.386Z,11.40
2022-09-21T22:29:49.452Z,11.30
2022-09-21T22:32:17.484Z,11.10
2022-09-21T22:34:45.456Z,11.10
2022-09-21T22:37:14.845Z,11.10
2022-09-21T22:39:42.911Z,11.20
2022-09-21T22:42:12.129Z,11.10
2022-09-21T22:44:40.194Z,11.10
2022-09-21T22:47:08.243Z,11.10
2022-09-21T22:49:36.690Z,11.10
2022-09-21T22:52:04.897Z,11.10
2022-09-21T22:54:34.266Z,11.00
2022-09-21T22:57:02.256Z,11.00
2022-09-21T22:59:30.300Z,10.90
2022-09-21T23:01:58.272Z,11.00
2022-09-21T23:04:26.447Z,10.90
2022-09-21T23:06:54.734Z,10.80
2022-09-21T23:09:23.080Z,10.80
2022-09-21T23:11:53.814Z,10.80
2022-09-21T23:14:22.946Z,10.80
2022-09-21T23:16:50.969Z,10.80
2022-09-21T23:19:19.003Z,10.80
2022-09-21T23:21:49.451Z,10.70
2022-09-21T23:24:18.220Z,10.70
2022-09-21T23:26:46.746Z,10.70
2022-09-21T23:29:16.757Z,10.70
2022-09-21T23:31:46.245Z,10.60
2022-09-21T23:34:15.395Z,10.60
2022-09-21T23:36:44.559Z,10.60
2022-09-21T23:39:13.709Z,10.50
2022-09-21T23:41:42.057Z,10.40
2022-09-21T23:44:10.103Z,10.30
2022-09-21T23:46:41.086Z,10.30
2022-09-21T23:49:09.537Z,10.30
2022-09-21T23:51:37.902Z,10.30
2022-09-21T23:54:06.144Z,10.30
2022-09-21T23:56:34.446Z,10.30
2022-09-21T23:59:02.512Z,10.20
